createdAt,value
2019-01-03T00:02:35.603Z,70.99
2019-01-03T00:05:29.779Z,71.23
2019-01-03T00:08:20.907Z,71.28
2019-01-03T00:11:08.256Z,71.32
2019-01-03T00:14:14.635Z,71.35
2019-01-03T00:17:03.244Z,71.36
2019-01-03T00:20:00.438Z,71.75
2019-01-03T00:22:47.591Z,71.61
2019-01-03T00:25:34.601Z,71.83
2019-01-03T00:28:27.623Z,71.73
2019-01-03T00:31:18.699Z,71.69
2019-01-03T00:34:15.967Z,71.98
2019-01-03T00:37:09.872Z,72.25
2019-01-03T00:39:57.282Z,71.70
2019-01-03T00:42:58.890Z,71.86
2019-01-03T00:45:52.941Z,71.85
2019-01-03T00:48:52.279Z,72.11
2019-01-03T00:51:40.362Z,72.17
2019-01-03T00:54:34.034Z,72.46
2019-01-03T00:57:20.764Z,72.32
2019-01-03T01:00:07.863Z,72.38
2019-01-03T01:02:54.889Z,72.70
2019-01-03T01:05:41.903Z,72.50
2019-01-03T01:08:39.347Z,72.61
2019-01-03T01:11:32.790Z,72.57
2019-01-03T01:14:30.247Z,72.59
2019-01-03T01:17:14.900Z,72.53
2019-01-03T01:20:02.673Z,72.44
2019-01-03T01:23:02.644Z,72.78
2019-01-03T01:25:54.206Z,72.99
2019-01-03T01:28:41.217Z,72.50
2019-01-03T01:31:38.582Z,72.46
2019-01-03T01:34:29.726Z,72.80
2019-01-03T01:37:36.230Z,72.85
2019-01-03T01:40:23.293Z,72.50
2019-01-03T01:43:10.409Z,73.01
2019-01-03T01:45:57.400Z,72.91
2019-01-03T01:48:54.745Z,72.74
2019-01-03T01:51:42.840Z,73.06
2019-01-03T01:54:29.644Z,72.89
2019-01-03T01:57:23.819Z,72.90
2019-01-03T02:00:20.952Z,73.03
2019-01-03T02:03:08.304Z,73.46
2019-01-03T02:05:53.469Z,72.99
2019-01-03T02:09:00.502Z,72.85
2019-01-03T02:11:59.259Z,72.87
2019-01-03T02:14:48.076Z,73.28
2019-01-03T02:17:39.294Z,73.52
2019-01-03T02:20:42.697Z,73.34
2019-01-03T02:23:41.064Z,73.34
2019-01-03T02:26:41.506Z,73.19
2019-01-03T02:29:28.586Z,73.45
2019-01-03T02:32:24.274Z,73.36
2019-01-03T02:35:21.612Z,73.32
2019-01-03T02:38:08.520Z,73.32
2019-01-03T02:41:00.322Z,73.45
2019-01-03T02:43:57.597Z,73.50
2019-01-03T02:46:47.261Z,73.65
2019-01-03T02:49:35.351Z,73.78
2019-01-03T02:52:29.585Z,74.04
2019-01-03T02:55:33.047Z,74.03
2019-01-03T02:58:19.964Z,74.08
2019-01-03T03:01:06.512Z,74.05
2019-01-03T03:03:53.617Z,74.08
2019-01-03T03:06:45.009Z,74.11
2019-01-03T03:09:51.500Z,74.22
2019-01-03T03:12:59.377Z,74.12
2019-01-03T03:16:02.610Z,74.18
2019-01-03T03:18:56.174Z,74.32
2019-01-03T03:21:44.249Z,74.44
2019-01-03T03:24:30.308Z,74.50
2019-01-03T03:27:18.498Z,74.64
2019-01-03T03:30:06.617Z,74.65
2019-01-03T03:33:07.141Z,74.66
2019-01-03T03:36:13.444Z,74.62
2019-01-03T03:39:07.528Z,74.69
2019-01-03T03:41:58.797Z,74.76
2019-01-03T03:44:49.667Z,75.08
2019-01-03T03:47:48.825Z,75.04
2019-01-03T03:50:39.992Z,74.99
2019-01-03T03:53:44.369Z,75.04
2019-01-03T03:56:28.169Z,75.05
2019-01-03T03:59:25.480Z,75.07
2019-01-03T04:02:07.266Z,75.16
2019-01-03T04:04:54.291Z,75.09
2019-01-03T04:07:48.379Z,75.23
2019-01-03T04:10:39.878Z,75.14
2019-01-03T04:13:30.821Z,75.25
2019-01-03T04:16:30.021Z,75.35
2019-01-03T04:19:30.341Z,75.46
2019-01-03T04:22:17.475Z,75.58
2019-01-03T04:25:05.546Z,75.68
2019-01-03T04:28:09.851Z,75.78
2019-01-03T04:31:08.503Z,76.11
2019-01-03T04:34:09.296Z,76.25
2019-01-03T04:36:56.064Z,76.36
2019-01-03T04:39:59.297Z,76.45
2019-01-03T04:42:57.945Z,76.28
2019-01-03T04:45:48.862Z,76.40
2019-01-03T04:48:40.022Z,76.54
2019-01-03T04:51:27.015Z,76.98
2019-01-03T04:54:18.011Z,76.62
2019-01-03T04:57:05.168Z,76.98
2019-01-03T04:59:52.057Z,76.55
2019-01-03T05:02:34.008Z,76.45
2019-01-03T05:05:22.111Z,76.36
2019-01-03T05:08:08.779Z,76.56
2019-01-03T05:10:59.686Z,76.88
2019-01-03T05:13:53.507Z,77.02
2019-01-03T05:16:40.324Z,77.04
2019-01-03T05:19:27.533Z,77.09
2019-01-03T05:22:14.457Z,77.06
2019-01-03T05:25:02.007Z,76.93
2019-01-03T05:28:02.457Z,77.03
2019-01-03T05:31:08.909Z,77.21
2019-01-03T05:34:09.332Z,77.29
2019-01-03T05:36:57.512Z,77.35
2019-01-03T05:39:48.702Z,77.38
2019-01-03T05:42:46.133Z,77.62
2019-01-03T05:45:49.712Z,77.53
2019-01-03T05:48:45.842Z,77.78
2019-01-03T05:51:43.067Z,77.96
2019-01-03T05:54:26.217Z,77.94
2019-01-03T05:57:28.639Z,78.07
2019-01-03T06:00:15.681Z,78.25
2019-01-03T06:03:22.503Z,78.10
2019-01-03T06:06:19.412Z,78.02
2019-01-03T06:09:02.254Z,78.50
2019-01-03T06:11:53.360Z,78.28
2019-01-03T06:14:40.929Z,78.03
2019-01-03T06:17:36.174Z,77.92
2019-01-03T06:20:30.496Z,77.91
2019-01-03T06:23:18.571Z,77.97
2019-01-03T06:26:16.129Z,77.82
2019-01-03T06:29:03.045Z,78.10
2019-01-03T06:32:03.570Z,77.96
2019-01-03T06:35:03.788Z,77.83
2019-01-03T06:37:50.756Z,77.75
2019-01-03T06:40:48.641Z,77.96
2019-01-03T06:43:35.810Z,78.25
2019-01-03T06:46:22.709Z,78.49
2019-01-03T06:49:16.994Z,78.63
2019-01-03T06:52:04.089Z,78.60
2019-01-03T06:54:49.071Z,78.62
2019-01-03T06:57:42.293Z,78.38
2019-01-03T07:00:29.458Z,78.45
2019-01-03T07:03:16.452Z,78.26
2019-01-03T07:06:23.045Z,78.08
2019-01-03T07:09:10.031Z,78.01
2019-01-03T07:11:58.110Z,78.00
2019-01-03T07:14:42.339Z,78.06
2019-01-03T07:17:29.860Z,77.79
2019-01-03T07:20:16.687Z,77.63
2019-01-03T07:23:08.706Z,77.60
2019-01-03T07:25:55.702Z,77.67
2019-01-03T07:28:43.197Z,77.62
2019-01-03T07:31:37.560Z,77.85
2019-01-03T07:34:18.110Z,78.08
2019-01-03T07:37:05.186Z,77.84
2019-01-03T07:40:02.468Z,77.98
2019-01-03T07:42:54.349Z,77.85
2019-01-03T07:45:41.313Z,77.45
2019-01-03T07:48:28.386Z,77.43
2019-01-03T07:51:20.671Z,77.26
2019-01-03T07:54:07.999Z,77.29
2019-01-03T07:56:55.343Z,77.64
2019-01-03T07:59:42.404Z,77.31
2019-01-03T08:02:29.353Z,77.07
2019-01-03T08:05:15.314Z,77.04
2019-01-03T08:08:09.300Z,77.39
2019-01-03T08:11:09.707Z,77.26
2019-01-03T08:14:05.055Z,77.66
2019-01-03T08:16:51.809Z,76.96
2019-01-03T08:19:46.148Z,76.77
2019-01-03T08:22:33.325Z,77.04
2019-01-03T08:25:20.497Z,76.85
2019-01-03T08:28:17.747Z,77.11
2019-01-03T08:31:04.414Z,76.75
2019-01-03T08:34:07.656Z,76.78
2019-01-03T08:37:12.361Z,76.90
2019-01-03T08:40:06.410Z,76.58
2019-01-03T08:43:00.249Z,76.41
2019-01-03T08:45:48.346Z,76.09
2019-01-03T08:49:00.382Z,76.34
2019-01-03T08:51:43.562Z,76.75
2019-01-03T08:54:31.696Z,77.01
2019-01-03T08:57:19.766Z,76.02
2019-01-03T09:00:06.613Z,75.51
2019-01-03T09:02:53.592Z,75.72
2019-01-03T09:05:40.357Z,75.66
2019-01-03T09:08:27.103Z,75.78
2019-01-03T09:11:24.571Z,75.67
2019-01-03T09:14:12.195Z,75.19
2019-01-03T09:17:13.980Z,75.06
2019-01-03T09:20:05.074Z,75.12
2019-01-03T09:22:53.462Z,74.60
2019-01-03T09:25:47.749Z,74.90
2019-01-03T09:28:35.868Z,74.47
2019-01-03T09:31:22.625Z,73.83
2019-01-03T09:34:16.712Z,73.94
2019-01-03T09:37:03.696Z,73.85
2019-01-03T09:39:50.868Z,73.45
2019-01-03T09:42:37.951Z,74.25
2019-01-03T09:45:07.286Z,74.47
2019-01-03T09:47:36.442Z,73.79
2019-01-03T09:50:05.941Z,73.47
2019-01-03T09:52:35.137Z,73.02
2019-01-03T09:55:04.311Z,72.73
2019-01-03T09:57:33.441Z,72.57
2019-01-03T10:00:02.758Z,73.08
2019-01-03T10:02:31.898Z,73.60
2019-01-03T10:05:03.113Z,73.31
2019-01-03T10:07:32.288Z,72.91
2019-01-03T10:10:02.224Z,73.33
2019-01-03T10:12:31.589Z,73.87
2019-01-03T10:15:00.760Z,73.33
2019-01-03T10:17:29.916Z,73.27
2019-01-03T10:19:59.426Z,73.21
2019-01-03T10:22:29.862Z,73.67
2019-01-03T10:24:59.095Z,73.66
2019-01-03T10:27:28.757Z,73.32
2019-01-03T10:29:57.966Z,73.62
2019-01-03T10:32:27.099Z,72.85
2019-01-03T10:34:56.383Z,73.48
2019-01-03T10:37:25.552Z,73.30
2019-01-03T10:39:54.740Z,72.93
2019-01-03T10:42:23.914Z,73.12
2019-01-03T10:44:53.037Z,73.11
2019-01-03T10:47:22.219Z,72.34
2019-01-03T10:49:51.494Z,71.46
2019-01-03T10:52:20.645Z,70.96
2019-01-03T10:54:49.791Z,71.60
2019-01-03T10:57:18.952Z,70.82
2019-01-03T10:59:48.129Z,71.77
2019-01-03T11:02:17.296Z,71.65
2019-01-03T11:04:46.491Z,71.67
2019-01-03T11:07:15.674Z,71.46
2019-01-03T11:09:44.850Z,71.82
2019-01-03T11:12:13.967Z,72.32
2019-01-03T11:14:43.116Z,71.74
2019-01-03T11:17:12.264Z,71.49
2019-01-03T11:19:41.437Z,71.04
2019-01-03T11:22:10.641Z,71.56
2019-01-03T11:24:39.796Z,72.27
2019-01-03T11:27:08.912Z,71.29
2019-01-03T11:29:38.269Z,71.07
2019-01-03T11:32:07.676Z,71.15
2019-01-03T11:37:12.523Z,70.29
2019-01-03T11:39:41.784Z,69.97
2019-01-03T11:42:10.923Z,70.50
2019-01-03T11:44:40.080Z,71.04
2019-01-03T11:47:09.225Z,70.74
2019-01-03T11:49:38.581Z,70.36
2019-01-03T11:52:07.779Z,70.19
2019-01-03T11:54:37.248Z,69.56
2019-01-03T11:57:06.388Z,69.98
2019-01-03T11:59:35.553Z,69.61
2019-01-03T12:02:04.812Z,69.54
2019-01-03T12:04:33.955Z,69.56
2019-01-03T12:07:03.223Z,70.19
2019-01-03T12:09:32.464Z,69.43
2019-01-03T12:12:01.685Z,69.53
2019-01-03T12:14:31.131Z,69.67
2019-01-03T12:17:00.770Z,69.55
2019-01-03T12:19:30.234Z,69.33
2019-01-03T12:21:59.479Z,69.28
2019-01-03T12:24:30.827Z,69.49
2019-01-03T12:26:59.636Z,69.10
2019-01-03T12:29:28.769Z,69.97
2019-01-03T12:31:58.066Z,69.36
2019-01-03T12:34:27.236Z,69.93
2019-01-03T12:36:56.418Z,69.32
2019-01-03T12:39:25.592Z,69.08
2019-01-03T12:41:54.770Z,70.00
2019-01-03T12:44:24.022Z,70.12
2019-01-03T12:46:53.205Z,69.89
2019-01-03T12:49:22.334Z,69.71
2019-01-03T12:51:51.495Z,69.91
2019-01-03T12:54:20.655Z,70.37
2019-01-03T12:56:49.819Z,70.55
2019-01-03T12:59:19.010Z,70.46
2019-01-03T13:01:48.171Z,70.94
2019-01-03T13:04:17.609Z,71.12
2019-01-03T13:06:46.766Z,71.02
2019-01-03T13:09:18.496Z,70.73
2019-01-03T13:11:49.038Z,70.77
2019-01-03T13:14:18.181Z,69.67
2019-01-03T13:16:47.439Z,68.91
2019-01-03T13:19:17.142Z,69.96
2019-01-03T13:21:46.616Z,70.04
2019-01-03T13:24:15.777Z,69.76
2019-01-03T13:26:44.905Z,68.73
2019-01-03T13:29:14.249Z,68.61
2019-01-03T13:31:43.400Z,67.28
2019-01-03T13:34:12.646Z,67.50
2019-01-03T13:36:41.826Z,67.32
2019-01-03T13:39:10.993Z,67.58
2019-01-03T13:41:40.233Z,67.94
2019-01-03T13:44:09.394Z,68.03
2019-01-03T13:46:38.547Z,68.67
2019-01-03T13:49:07.978Z,68.03
2019-01-03T13:51:37.197Z,68.48
2019-01-03T13:54:06.442Z,68.09
2019-01-03T13:56:35.994Z,68.09
2019-01-03T13:59:05.249Z,67.46
2019-01-03T14:01:34.398Z,67.56
2019-01-03T14:04:03.595Z,68.11
2019-01-03T14:06:32.852Z,68.20
2019-01-03T14:09:02.998Z,69.06
2019-01-03T14:11:32.167Z,68.66
2019-01-03T14:14:01.323Z,69.30
2019-01-03T14:16:30.518Z,69.30
2019-01-03T14:18:59.741Z,69.38
2019-01-03T14:21:28.898Z,69.93
2019-01-03T14:23:58.092Z,70.67
2019-01-03T14:26:27.346Z,71.40
2019-01-03T14:28:56.600Z,72.46
2019-01-03T14:31:25.878Z,71.95
2019-01-03T14:33:55.014Z,71.58
2019-01-03T14:36:24.153Z,71.44
2019-01-03T14:38:53.323Z,71.39
2019-01-03T14:41:22.507Z,71.39
2019-01-03T14:43:51.652Z,71.33
2019-01-03T14:46:20.812Z,71.23
2019-01-03T14:48:50.073Z,71.54
2019-01-03T14:51:19.243Z,71.68
2019-01-03T14:53:48.656Z,71.38
2019-01-03T14:56:17.850Z,71.50
2019-01-03T14:58:46.978Z,71.61
2019-01-03T15:01:16.247Z,71.81
2019-01-03T15:03:45.384Z,71.83
2019-01-03T15:06:14.534Z,71.65
2019-01-03T15:08:43.810Z,71.84
2019-01-03T15:11:13.026Z,72.06
2019-01-03T15:13:42.187Z,71.50
2019-01-03T15:16:11.331Z,72.06
2019-01-03T15:18:40.562Z,72.10
2019-01-03T15:21:09.708Z,71.84
2019-01-03T15:23:39.032Z,72.40
2019-01-03T15:26:08.169Z,72.45
2019-01-03T15:28:37.354Z,72.18
2019-01-03T15:31:06.760Z,72.30
2019-01-03T15:33:35.893Z,72.43
2019-01-03T15:36:05.069Z,72.61
2019-01-03T15:38:34.251Z,72.65
2019-01-03T15:41:03.453Z,72.47
2019-01-03T15:43:32.626Z,72.45
2019-01-03T15:46:01.873Z,72.84
2019-01-03T15:48:31.013Z,72.32
2019-01-03T15:51:00.485Z,72.45
2019-01-03T15:53:29.719Z,72.37
2019-01-03T15:55:58.868Z,72.29
2019-01-03T15:58:28.184Z,72.64
2019-01-03T16:00:57.525Z,72.85
2019-01-03T16:03:27.006Z,72.87
2019-01-03T16:05:56.224Z,73.10
2019-01-03T16:08:25.464Z,73.25
2019-01-03T16:10:56.741Z,73.63
2019-01-03T16:13:26.179Z,73.64
2019-01-03T16:15:55.352Z,74.25
2019-01-03T16:18:24.494Z,74.11
2019-01-03T16:20:53.661Z,74.18
2019-01-03T16:23:23.092Z,74.47
2019-01-03T16:25:52.308Z,74.73
2019-01-03T16:28:21.563Z,75.18
2019-01-03T16:30:50.702Z,75.40
2019-01-03T16:33:20.025Z,75.23
2019-01-03T16:35:49.683Z,75.71
2019-01-03T16:38:19.087Z,75.60
2019-01-03T16:40:48.330Z,75.68
2019-01-03T16:43:17.599Z,76.09
2019-01-03T16:45:46.926Z,76.23
2019-01-03T16:48:20.676Z,76.66
2019-01-03T16:50:49.880Z,76.44
2019-01-03T16:53:19.048Z,76.56
2019-01-03T16:55:48.239Z,76.78
2019-01-03T16:58:17.405Z,76.89
2019-01-03T17:00:46.941Z,76.97
2019-01-03T17:03:16.196Z,77.19
2019-01-03T17:05:45.373Z,77.04
2019-01-03T17:08:14.560Z,77.12
2019-01-03T17:10:43.753Z,76.78
2019-01-03T17:13:12.931Z,76.81
2019-01-03T17:15:42.326Z,77.14
2019-01-03T17:18:11.556Z,77.18
2019-01-03T17:20:40.708Z,77.33
2019-01-03T17:23:10.008Z,77.32
2019-01-03T17:25:39.159Z,77.24
2019-01-03T17:28:08.286Z,76.79
2019-01-03T17:30:37.490Z,76.75
2019-01-03T17:33:06.759Z,76.67
2019-01-03T17:35:35.960Z,76.84
2019-01-03T17:38:05.120Z,77.21
2019-01-03T17:40:34.274Z,77.20
2019-01-03T17:43:03.559Z,77.66
2019-01-03T17:45:32.894Z,78.11
2019-01-03T17:48:02.085Z,78.25
2019-01-03T17:50:36.299Z,78.24
2019-01-03T17:53:02.478Z,78.15
2019-01-03T17:55:31.648Z,78.21
2019-01-03T17:58:02.504Z,78.35
2019-01-03T18:00:31.913Z,78.35
2019-01-03T18:03:01.175Z,78.59
2019-01-03T18:05:30.952Z,78.75
2019-01-03T18:08:02.904Z,78.95
2019-01-03T18:10:32.164Z,79.09
2019-01-03T18:13:02.396Z,79.45
2019-01-03T18:15:31.593Z,79.79
2019-01-03T18:18:02.185Z,79.68
2019-01-03T18:20:31.426Z,79.69
2019-01-03T18:23:00.536Z,80.04
2019-01-03T18:25:29.717Z,80.27
2019-01-03T18:27:58.878Z,80.04
2019-01-03T18:30:28.049Z,80.18
2019-01-03T18:32:57.239Z,80.07
2019-01-03T18:35:26.520Z,80.25
2019-01-03T18:37:56.838Z,80.11
2019-01-03T18:40:26.291Z,80.05
2019-01-03T18:42:55.575Z,80.37
2019-01-03T18:45:28.034Z,80.54
2019-01-03T18:47:57.219Z,80.45
2019-01-03T18:50:26.417Z,80.41
2019-01-03T18:52:55.795Z,80.40
2019-01-03T18:55:24.968Z,80.22
2019-01-03T18:57:54.118Z,80.29
2019-01-03T19:00:23.517Z,80.55
2019-01-03T19:02:52.806Z,80.35
2019-01-03T19:05:21.987Z,80.13
2019-01-03T19:07:51.180Z,80.17
2019-01-03T19:10:20.523Z,80.49
2019-01-03T19:12:49.668Z,80.31
2019-01-03T19:15:19.310Z,80.17
2019-01-03T19:17:48.619Z,80.41
2019-01-03T19:20:19.022Z,80.54
2019-01-03T19:22:49.431Z,80.67
2019-01-03T19:25:19.499Z,81.07
2019-01-03T19:27:48.729Z,81.08
2019-01-03T19:30:18.040Z,81.19
2019-01-03T19:32:47.221Z,81.01
2019-01-03T19:35:16.539Z,80.96
2019-01-03T19:37:46.269Z,80.87
2019-01-03T19:40:16.092Z,80.89
2019-01-03T19:42:46.929Z,80.90
2019-01-03T19:45:16.406Z,80.99
2019-01-03T19:47:45.695Z,81.11
2019-01-03T19:50:17.776Z,81.27
2019-01-03T19:52:47.216Z,81.29
2019-01-03T19:55:16.612Z,81.35
2019-01-03T19:57:45.963Z,81.36
2019-01-03T20:00:16.970Z,81.31
2019-01-03T20:02:47.262Z,81.32
2019-01-03T20:05:18.549Z,81.32
2019-01-03T20:07:48.808Z,81.68
2019-01-03T20:10:18.423Z,82.03
2019-01-03T20:12:47.696Z,82.33
2019-01-03T20:15:17.209Z,82.40
2019-01-03T20:17:47.124Z,82.37
2019-01-03T20:20:17.526Z,82.36
2019-01-03T20:22:47.049Z,82.52
2019-01-03T20:25:16.587Z,82.62
2019-01-03T20:27:46.046Z,82.65
2019-01-03T20:30:15.537Z,82.49
2019-01-03T20:32:45.523Z,82.77
2019-01-03T20:35:15.186Z,82.71
2019-01-03T20:37:45.897Z,82.69
2019-01-03T20:40:15.783Z,82.69
2019-01-03T20:42:45.332Z,82.74
2019-01-03T20:45:15.154Z,82.87
2019-01-03T20:47:44.419Z,82.65
2019-01-03T20:50:16.593Z,82.45
2019-01-03T20:52:46.015Z,82.37
2019-01-03T20:55:17.170Z,82.52
2019-01-03T20:57:46.413Z,82.62
2019-01-03T21:00:17.388Z,82.85
2019-01-03T21:02:58.057Z,82.84
2019-01-03T21:05:27.598Z,82.86
2019-01-03T21:07:57.135Z,82.88
2019-01-03T21:10:26.871Z,83.17
2019-01-03T21:12:57.031Z,83.18
2019-01-03T21:15:26.813Z,83.37
2019-01-03T21:17:57.083Z,83.60
2019-01-03T21:20:26.393Z,83.75
2019-01-03T21:22:55.977Z,83.65
2019-01-03T21:25:25.576Z,83.67
2019-01-03T21:27:55.039Z,83.77
2019-01-03T21:30:24.509Z,83.96
2019-01-03T21:32:55.051Z,84.10
2019-01-03T21:35:24.778Z,84.26
2019-01-03T21:37:55.203Z,84.34
2019-01-03T21:40:24.748Z,84.47
2019-01-03T21:42:56.250Z,84.57
2019-01-03T21:45:25.577Z,84.68
2019-01-03T21:47:54.789Z,84.74
2019-01-03T21:50:24.117Z,84.69
2019-01-03T21:52:54.665Z,84.68
2019-01-03T21:55:24.220Z,84.49
2019-01-03T21:57:55.033Z,84.10
2019-01-03T22:00:24.366Z,83.41
2019-01-03T22:02:54.826Z,82.74
2019-01-03T22:05:24.092Z,82.37
2019-01-03T22:07:53.404Z,82.36
2019-01-03T22:10:23.313Z,82.45
2019-01-03T22:12:52.696Z,82.42
2019-01-03T22:15:21.889Z,82.64
2019-01-03T22:17:51.126Z,82.96
2019-01-03T22:20:20.613Z,83.26
2019-01-03T22:22:49.817Z,83.59
2019-01-03T22:25:19.019Z,83.65
2019-01-03T22:27:48.239Z,83.56
2019-01-03T22:30:18.114Z,83.53
2019-01-03T22:32:47.275Z,83.60
2019-01-03T22:35:16.453Z,83.69
2019-01-03T22:37:45.599Z,83.70
2019-01-03T22:40:14.834Z,83.71
2019-01-03T22:42:44.334Z,83.54
2019-01-03T22:45:13.501Z,83.56
2019-01-03T22:47:42.684Z,83.96
2019-01-03T22:50:12.173Z,84.05
2019-01-03T22:52:41.324Z,83.99
2019-01-03T22:55:10.506Z,83.91
2019-01-03T22:57:39.812Z,83.85
2019-01-03T23:00:33.122Z,83.86
2019-01-03T23:03:02.492Z,83.70
2019-01-03T23:05:31.651Z,83.82
2019-01-03T23:08:02.508Z,83.89
2019-01-03T23:10:31.812Z,83.90
2019-01-03T23:13:02.142Z,83.94
2019-01-03T23:15:31.254Z,83.85
2019-01-03T23:18:00.555Z,84.05
2019-01-03T23:20:29.696Z,84.32
2019-01-03T23:22:58.965Z,84.36
2019-01-03T23:25:28.476Z,84.62
2019-01-03T23:27:57.753Z,84.53
2019-01-03T23:30:26.901Z,84.54
2019-01-03T23:32:56.207Z,84.46
2019-01-03T23:35:25.395Z,84.35
2019-01-03T23:37:54.576Z,84.26
2019-01-03T23:40:23.782Z,84.25
2019-01-03T23:42:53.030Z,84.27
2019-01-03T23:45:24.239Z,84.31
2019-01-03T23:47:58.105Z,84.23
2019-01-03T23:50:32.353Z,84.40
2019-01-03T23:53:01.489Z,84.37
2019-01-03T23:55:33.027Z,84.60
2019-01-03T23:58:02.621Z,84.76
